sensor_id;sensor_type;location;lat;lon;timestamp;pressure;altitude;pressure_sealevel;temperature;humidity
36138;BME280;67787;50.074;21.904;2023-03-26T00:01:12;98051.44;;;8.03;65.73
36138;BME280;67787;50.074;21.904;2023-03-26T00:03:41;98050.56;;;8.05;65.88
36138;BME280;67787;50.074;21.904;2023-03-26T00:06:13;98048.69;;;8.09;65.81
36138;BME280;67787;50.074;21.904;2023-03-26T00:08:41;98056.05;;;8.12;65.83
36138;BME280;67787;50.074;21.904;2023-03-26T00:11:10;98055.35;;;8.14;65.97
36138;BME280;67787;50.074;21.904;2023-03-26T00:13:38;98053.04;;;8.19;65.88
36138;BME280;67787;50.074;21.904;2023-03-26T00:16:06;98046.10;;;8.22;65.85
36138;BME280;67787;50.074;21.904;2023-03-26T00:18:33;98054.68;;;8.23;66.10
36138;BME280;67787;50.074;21.904;2023-03-26T00:21:02;98063.25;;;8.24;66.03
36138;BME280;67787;50.074;21.904;2023-03-26T00:23:29;98069.84;;;8.25;66.00
36138;BME280;67787;50.074;21.904;2023-03-26T00:25:57;98072.77;;;8.26;66.16
36138;BME280;67787;50.074;21.904;2023-03-26T00:28:24;98078.63;;;8.28;66.18
36138;BME280;67787;50.074;21.904;2023-03-26T00:30:59;98080.14;;;8.29;66.15
36138;BME280;67787;50.074;21.904;2023-03-26T00:33:27;98080.92;;;8.28;66.19
36138;BME280;67787;50.074;21.904;2023-03-26T00:35:56;98077.33;;;8.29;66.17
36138;BME280;67787;50.074;21.904;2023-03-26T00:38:25;98076.52;;;8.30;66.20
36138;BME280;67787;50.074;21.904;2023-03-26T00:40:54;98076.05;;;8.29;66.42
36138;BME280;67787;50.074;21.904;2023-03-26T00:43:21;98078.52;;;8.25;66.59
36138;BME280;67787;50.074;21.904;2023-03-26T00:45:52;98076.70;;;8.16;66.35
36138;BME280;67787;50.074;21.904;2023-03-26T00:48:21;98080.20;;;8.10;66.49
36138;BME280;67787;50.074;21.904;2023-03-26T00:51:00;98082.89;;;8.03;66.46
36138;BME280;67787;50.074;21.904;2023-03-26T00:53:27;98079.20;;;7.98;66.90
36138;BME280;67787;50.074;21.904;2023-03-26T00:55:53;98079.89;;;7.94;66.98
36138;BME280;67787;50.074;21.904;2023-03-26T00:58:26;98078.09;;;7.90;66.73
36138;BME280;67787;50.074;21.904;2023-03-26T01:00:55;98080.31;;;7.86;66.65
36138;BME280;67787;50.074;21.904;2023-03-26T01:03:25;98079.99;;;7.83;66.64
36138;BME280;67787;50.074;21.904;2023-03-26T01:06:07;98088.55;;;7.80;67.31
36138;BME280;67787;50.074;21.904;2023-03-26T01:08:36;98090.64;;;7.73;67.59
36138;BME280;67787;50.074;21.904;2023-03-26T01:11:15;98099.15;;;7.66;67.52
36138;BME280;67787;50.074;21.904;2023-03-26T01:13:53;98103.34;;;7.59;67.69
36138;BME280;67787;50.074;21.904;2023-03-26T01:16:28;98101.31;;;7.53;67.02
36138;BME280;67787;50.074;21.904;2023-03-26T01:18:56;98096.70;;;7.52;66.90
36138;BME280;67787;50.074;21.904;2023-03-26T01:21:26;98092.36;;;7.51;67.05
36138;BME280;67787;50.074;21.904;2023-03-26T01:24:05;98094.73;;;7.52;67.04
36138;BME280;67787;50.074;21.904;2023-03-26T01:29:23;98088.95;;;7.54;66.99
36138;BME280;67787;50.074;21.904;2023-03-26T01:34:48;98078.73;;;7.58;66.80
36138;BME280;67787;50.074;21.904;2023-03-26T01:40:36;98083.67;;;7.58;66.76
36138;BME280;67787;50.074;21.904;2023-03-26T01:45:43;98084.95;;;7.51;66.64
36138;BME280;67787;50.074;21.904;2023-03-26T01:48:11;98085.94;;;7.49;66.75
36138;BME280;67787;50.074;21.904;2023-03-26T01:50:38;98083.66;;;7.49;66.82
36138;BME280;67787;50.074;21.904;2023-03-26T01:53:07;98085.23;;;7.49;66.91
36138;BME280;67787;50.074;21.904;2023-03-26T02:03:59;98081.00;;;7.49;66.96
36138;BME280;67787;50.074;21.904;2023-03-26T02:09:08;98076.27;;;7.51;67.06
36138;BME280;67787;50.074;21.904;2023-03-26T02:11:39;98077.63;;;7.52;66.95
36138;BME280;67787;50.074;21.904;2023-03-26T02:14:07;98075.67;;;7.54;67.01
36138;BME280;67787;50.074;21.904;2023-03-26T02:16:34;98074.08;;;7.54;67.04
36138;BME280;67787;50.074;21.904;2023-03-26T02:19:01;98073.34;;;7.54;67.04
36138;BME280;67787;50.074;21.904;2023-03-26T02:21:28;98070.46;;;7.55;67.15
36138;BME280;67787;50.074;21.904;2023-03-26T02:23:59;98069.72;;;7.56;66.99
36138;BME280;67787;50.074;21.904;2023-03-26T02:26:31;98069.27;;;7.55;67.11
36138;BME280;67787;50.074;21.904;2023-03-26T02:28:58;98067.61;;;7.53;67.17
36138;BME280;67787;50.074;21.904;2023-03-26T02:31:27;98064.85;;;7.50;67.02
36138;BME280;67787;50.074;21.904;2023-03-26T02:33:54;98067.48;;;7.46;66.97
36138;BME280;67787;50.074;21.904;2023-03-26T02:36:22;98067.02;;;7.42;67.07
36138;BME280;67787;50.074;21.904;2023-03-26T02:38:53;98066.45;;;7.41;66.97
36138;BME280;67787;50.074;21.904;2023-03-26T02:41:20;98068.98;;;7.37;66.93
36138;BME280;67787;50.074;21.904;2023-03-26T02:43:47;98068.52;;;7.32;66.99
36138;BME280;67787;50.074;21.904;2023-03-26T02:46:14;98068.73;;;7.27;66.77
36138;BME280;67787;50.074;21.904;2023-03-26T02:48:40;98066.63;;;7.22;67.01
36138;BME280;67787;50.074;21.904;2023-03-26T02:51:09;98067.81;;;7.18;66.94
36138;BME280;67787;50.074;21.904;2023-03-26T02:53:35;98068.77;;;7.14;67.06
36138;BME280;67787;50.074;21.904;2023-03-26T02:56:02;98069.80;;;7.12;67.09
36138;BME280;67787;50.074;21.904;2023-03-26T02:58:29;98067.75;;;7.14;67.06
36138;BME280;67787;50.074;21.904;2023-03-26T03:00:56;98065.18;;;7.15;66.99
36138;BME280;67787;50.074;21.904;2023-03-26T03:03:24;98065.17;;;7.18;67.05
36138;BME280;67787;50.074;21.904;2023-03-26T03:05:53;98063.08;;;7.20;67.01
36138;BME280;67787;50.074;21.904;2023-03-26T03:08:22;98062.10;;;7.23;67.07
36138;BME280;67787;50.074;21.904;2023-03-26T03:11:09;98062.90;;;7.27;67.22
36138;BME280;67787;50.074;21.904;2023-03-26T03:13:36;98058.18;;;7.31;67.02
36138;BME280;67787;50.074;21.904;2023-03-26T03:16:03;98053.31;;;7.35;67.02
36138;BME280;67787;50.074;21.904;2023-03-26T03:18:30;98053.40;;;7.38;67.31
36138;BME280;67787;50.074;21.904;2023-03-26T03:20:57;98057.80;;;7.43;67.13
36138;BME280;67787;50.074;21.904;2023-03-26T03:23:23;98058.75;;;7.47;67.30
36138;BME280;67787;50.074;21.904;2023-03-26T03:25:50;98058.48;;;7.50;67.04
36138;BME280;67787;50.074;21.904;2023-03-26T03:28:17;98058.33;;;7.55;67.02
36138;BME280;67787;50.074;21.904;2023-03-26T03:30:44;98059.27;;;7.59;67.24
36138;BME280;67787;50.074;21.904;2023-03-26T03:33:11;98057.54;;;7.61;67.00
36138;BME280;67787;50.074;21.904;2023-03-26T03:35:38;98060.84;;;7.64;67.39
36138;BME280;67787;50.074;21.904;2023-03-26T03:38:05;98060.21;;;7.65;67.20
36138;BME280;67787;50.074;21.904;2023-03-26T03:40:32;98059.09;;;7.66;67.16
36138;BME280;67787;50.074;21.904;2023-03-26T03:42:58;98059.70;;;7.67;67.21
36138;BME280;67787;50.074;21.904;2023-03-26T03:45:25;98060.56;;;7.67;67.31
36138;BME280;67787;50.074;21.904;2023-03-26T03:47:51;98060.98;;;7.68;67.12
36138;BME280;67787;50.074;21.904;2023-03-26T03:50:18;98059.96;;;7.70;67.22
36138;BME280;67787;50.074;21.904;2023-03-26T03:52:45;98059.34;;;7.72;67.14
36138;BME280;67787;50.074;21.904;2023-03-26T03:55:12;98058.61;;;7.72;67.25
36138;BME280;67787;50.074;21.904;2023-03-26T03:57:39;98061.03;;;7.73;67.22
36138;BME280;67787;50.074;21.904;2023-03-26T04:00:06;98057.10;;;7.73;67.29
36138;BME280;67787;50.074;21.904;2023-03-26T04:02:34;98061.03;;;7.73;67.18
36138;BME280;67787;50.074;21.904;2023-03-26T04:05:02;98060.64;;;7.73;67.15
36138;BME280;67787;50.074;21.904;2023-03-26T04:07:30;98059.53;;;7.74;67.20
36138;BME280;67787;50.074;21.904;2023-03-26T04:09:58;98057.95;;;7.76;67.21
36138;BME280;67787;50.074;21.904;2023-03-26T04:12:31;98059.77;;;7.78;67.28
36138;BME280;67787;50.074;21.904;2023-03-26T04:14:59;98065.38;;;7.78;67.23
36138;BME280;67787;50.074;21.904;2023-03-26T04:17:25;98061.81;;;7.79;67.14
36138;BME280;67787;50.074;21.904;2023-03-26T04:19:52;98064.60;;;7.79;67.23
36138;BME280;67787;50.074;21.904;2023-03-26T04:22:20;98064.41;;;7.79;67.20
36138;BME280;67787;50.074;21.904;2023-03-26T04:24:46;98061.08;;;7.79;67.23
36138;BME280;67787;50.074;21.904;2023-03-26T04:27:18;98063.02;;;7.79;67.14
36138;BME280;67787;50.074;21.904;2023-03-26T04:29:47;98060.52;;;7.79;67.15
36138;BME280;67787;50.074;21.904;2023-03-26T04:32:22;98058.90;;;7.80;67.14
36138;BME280;67787;50.074;21.904;2023-03-26T04:34:51;98056.95;;;7.80;67.15
36138;BME280;67787;50.074;21.904;2023-03-26T04:39:57;98054.36;;;7.81;67.11
36138;BME280;67787;50.074;21.904;2023-03-26T04:42:24;98055.77;;;7.82;67.09
36138;BME280;67787;50.074;21.904;2023-03-26T04:44:50;98057.63;;;7.83;67.23
36138;BME280;67787;50.074;21.904;2023-03-26T04:47:17;98058.92;;;7.82;67.20
36138;BME280;67787;50.074;21.904;2023-03-26T04:49:47;98062.32;;;7.81;67.08
36138;BME280;67787;50.074;21.904;2023-03-26T04:52:14;98064.33;;;7.80;66.95
36138;BME280;67787;50.074;21.904;2023-03-26T04:54:43;98059.11;;;7.79;67.20
36138;BME280;67787;50.074;21.904;2023-03-26T04:57:21;98060.97;;;7.80;67.16
36138;BME280;67787;50.074;21.904;2023-03-26T04:59:51;98063.29;;;7.80;67.18
36138;BME280;67787;50.074;21.904;2023-03-26T05:02:18;98063.33;;;7.79;67.07
36138;BME280;67787;50.074;21.904;2023-03-26T05:04:45;98060.68;;;7.79;67.01
36138;BME280;67787;50.074;21.904;2023-03-26T05:07:16;98064.73;;;7.82;67.22
36138;BME280;67787;50.074;21.904;2023-03-26T05:09:42;98064.47;;;7.83;67.14
36138;BME280;67787;50.074;21.904;2023-03-26T05:12:09;98064.76;;;7.82;67.13
36138;BME280;67787;50.074;21.904;2023-03-26T05:14:36;98061.53;;;7.82;67.13
36138;BME280;67787;50.074;21.904;2023-03-26T05:17:03;98053.71;;;7.83;67.12
36138;BME280;67787;50.074;21.904;2023-03-26T05:19:36;98058.45;;;7.81;67.05
36138;BME280;67787;50.074;21.904;2023-03-26T05:22:04;98058.13;;;7.78;67.20
36138;BME280;67787;50.074;21.904;2023-03-26T05:24:30;98058.27;;;7.79;67.26
36138;BME280;67787;50.074;21.904;2023-03-26T05:26:56;98057.73;;;7.79;67.13
36138;BME280;67787;50.074;21.904;2023-03-26T05:29:23;98064.48;;;7.78;67.20
36138;BME280;67787;50.074;21.904;2023-03-26T05:31:50;98060.20;;;7.77;67.05
36138;BME280;67787;50.074;21.904;2023-03-26T05:34:18;98063.84;;;7.73;67.09
36138;BME280;67787;50.074;21.904;2023-03-26T05:36:45;98062.34;;;7.67;67.02
36138;BME280;67787;50.074;21.904;2023-03-26T05:39:12;98063.71;;;7.63;67.09
36138;BME280;67787;50.074;21.904;2023-03-26T05:41:39;98061.88;;;7.59;67.12
36138;BME280;67787;50.074;21.904;2023-03-26T05:44:07;98064.25;;;7.58;67.07
36138;BME280;67787;50.074;21.904;2023-03-26T05:46:33;98065.58;;;7.59;67.14
36138;BME280;67787;50.074;21.904;2023-03-26T05:49:00;98061.34;;;7.62;67.14
36138;BME280;67787;50.074;21.904;2023-03-26T05:51:26;98062.36;;;7.65;67.11
36138;BME280;67787;50.074;21.904;2023-03-26T05:53:53;98063.85;;;7.68;67.14
36138;BME280;67787;50.074;21.904;2023-03-26T05:56:19;98066.35;;;7.72;67.15
36138;BME280;67787;50.074;21.904;2023-03-26T05:58:47;98063.90;;;7.77;67.28
36138;BME280;67787;50.074;21.904;2023-03-26T06:01:13;98066.39;;;7.79;67.26
36138;BME280;67787;50.074;21.904;2023-03-26T06:03:44;98071.05;;;7.82;67.24
36138;BME280;67787;50.074;21.904;2023-03-26T06:06:16;98073.20;;;7.84;66.99
36138;BME280;67787;50.074;21.904;2023-03-26T06:08:44;98072.98;;;7.92;67.31
36138;BME280;67787;50.074;21.904;2023-03-26T06:11:30;98068.52;;;8.08;67.46
36138;BME280;67787;50.074;21.904;2023-03-26T06:13:57;98071.27;;;8.27;67.39
36138;BME280;67787;50.074;21.904;2023-03-26T06:16:25;98072.77;;;8.47;67.59
36138;BME280;67787;50.074;21.904;2023-03-26T06:18:54;98076.17;;;8.62;67.45
36138;BME280;67787;50.074;21.904;2023-03-26T06:21:26;98070.06;;;8.79;67.58
36138;BME280;67787;50.074;21.904;2023-03-26T06:23:53;98073.77;;;8.96;67.49
36138;BME280;67787;50.074;21.904;2023-03-26T06:26:21;98079.23;;;9.10;67.41
36138;BME280;67787;50.074;21.904;2023-03-26T06:28:47;98077.73;;;9.19;67.45
36138;BME280;67787;50.074;21.904;2023-03-26T06:31:14;98076.38;;;9.25;67.55
36138;BME280;67787;50.074;21.904;2023-03-26T06:33:42;98078.60;;;9.30;67.49
36138;BME280;67787;50.074;21.904;2023-03-26T06:36:08;98075.89;;;9.33;67.39
36138;BME280;67787;50.074;21.904;2023-03-26T06:38:35;98074.23;;;9.36;67.28
36138;BME280;67787;50.074;21.904;2023-03-26T06:41:04;98079.36;;;9.38;67.30
36138;BME280;67787;50.074;21.904;2023-03-26T06:43:31;98076.38;;;9.40;67.34
36138;BME280;67787;50.074;21.904;2023-03-26T06:46:00;98076.61;;;9.44;67.26
36138;BME280;67787;50.074;21.904;2023-03-26T06:48:27;98074.33;;;9.48;67.34
36138;BME280;67787;50.074;21.904;2023-03-26T06:50:54;98074.52;;;9.54;67.25
36138;BME280;67787;50.074;21.904;2023-03-26T06:53:21;98075.40;;;9.60;67.24
36138;BME280;67787;50.074;21.904;2023-03-26T06:55:48;98072.30;;;9.63;67.16
36138;BME280;67787;50.074;21.904;2023-03-26T06:58:14;98065.40;;;9.65;67.07
36138;BME280;67787;50.074;21.904;2023-03-26T07:00:41;98067.80;;;9.66;67.13
36138;BME280;67787;50.074;21.904;2023-03-26T07:03:08;98067.80;;;9.66;67.04
36138;BME280;67787;50.074;21.904;2023-03-26T07:05:37;98070.90;;;9.69;67.11
36138;BME280;67787;50.074;21.904;2023-03-26T07:08:05;98071.27;;;9.78;67.10
36138;BME280;67787;50.074;21.904;2023-03-26T07:10:32;98066.40;;;9.83;67.04
36138;BME280;67787;50.074;21.904;2023-03-26T07:12:58;98067.88;;;9.89;67.14
36138;BME280;67787;50.074;21.904;2023-03-26T07:15:26;98071.52;;;9.94;67.03
36138;BME280;67787;50.074;21.904;2023-03-26T07:17:53;98074.96;;;10.01;67.14
36138;BME280;67787;50.074;21.904;2023-03-26T07:20:21;98065.80;;;10.12;67.06
36138;BME280;67787;50.074;21.904;2023-03-26T07:22:48;98061.25;;;10.33;67.15
36138;BME280;67787;50.074;21.904;2023-03-26T07:25:17;98061.74;;;10.50;66.90
36138;BME280;67787;50.074;21.904;2023-03-26T07:28:02;98063.60;;;10.55;66.54
36138;BME280;67787;50.074;21.904;2023-03-26T07:36:21;98053.96;;;10.71;66.77
36138;BME280;67787;50.074;21.904;2023-03-26T07:41:45;98055.02;;;10.87;66.68
36138;BME280;67787;50.074;21.904;2023-03-26T07:46:49;98062.95;;;11.00;66.80
36138;BME280;67787;50.074;21.904;2023-03-26T07:49:18;98062.13;;;11.01;66.58
36138;BME280;67787;50.074;21.904;2023-03-26T07:51:47;98061.95;;;11.01;66.54
36138;BME280;67787;50.074;21.904;2023-03-26T07:54:14;98057.30;;;11.06;66.65
36138;BME280;67787;50.074;21.904;2023-03-26T07:56:49;98052.77;;;11.05;66.55
36138;BME280;67787;50.074;21.904;2023-03-26T08:07:20;98058.92;;;11.37;66.06
36138;BME280;67787;50.074;21.904;2023-03-26T08:15:27;98052.90;;;11.71;66.05
36138;BME280;67787;50.074;21.904;2023-03-26T08:18:00;98054.16;;;11.65;65.88
36138;BME280;67787;50.074;21.904;2023-03-26T08:20:39;98056.22;;;11.55;64.46
36138;BME280;67787;50.074;21.904;2023-03-26T08:23:33;98051.80;;;11.41;65.32
36138;BME280;67787;50.074;21.904;2023-03-26T08:26:22;98050.98;;;11.33;65.57
36138;BME280;67787;50.074;21.904;2023-03-26T08:31:32;98048.39;;;11.24;65.42
36138;BME280;67787;50.074;21.904;2023-03-26T08:34:00;98047.11;;;11.14;65.46
36138;BME280;67787;50.074;21.904;2023-03-26T08:36:27;98048.63;;;11.08;65.49
36138;BME280;67787;50.074;21.904;2023-03-26T08:38:55;98046.86;;;11.11;65.39
36138;BME280;67787;50.074;21.904;2023-03-26T08:41:33;98053.79;;;11.13;64.83
36138;BME280;67787;50.074;21.904;2023-03-26T08:52:59;98056.75;;;10.74;64.07
36138;BME280;67787;50.074;21.904;2023-03-26T08:55:40;98056.01;;;10.64;64.61
36138;BME280;67787;50.074;21.904;2023-03-26T09:21:24;98045.59;;;11.35;64.46
36138;BME280;67787;50.074;21.904;2023-03-26T09:35:24;98041.41;;;11.22;63.97
36138;BME280;67787;50.074;21.904;2023-03-26T09:41:07;98038.94;;;11.13;63.57
36138;BME280;67787;50.074;21.904;2023-03-26T09:52:19;98037.91;;;10.79;63.42
36138;BME280;67787;50.074;21.904;2023-03-26T09:57:46;98024.98;;;11.04;63.38
36138;BME280;67787;50.074;21.904;2023-03-26T10:20:11;98000.27;;;12.23;62.10
36138;BME280;67787;50.074;21.904;2023-03-26T10:37:49;97995.95;;;11.84;62.70
36138;BME280;67787;50.074;21.904;2023-03-26T10:43:11;97990.80;;;11.94;62.82
36138;BME280;67787;50.074;21.904;2023-03-26T10:46:12;97989.90;;;12.16;62.98
36138;BME280;67787;50.074;21.904;2023-03-26T10:56:53;97983.08;;;12.74;62.50
36138;BME280;67787;50.074;21.904;2023-03-26T10:59:21;97982.52;;;12.71;62.40
36138;BME280;67787;50.074;21.904;2023-03-26T11:10:05;97980.36;;;12.42;62.25
36138;BME280;67787;50.074;21.904;2023-03-26T11:15:49;97977.02;;;12.60;62.32
36138;BME280;67787;50.074;21.904;2023-03-26T11:18:48;97976.46;;;12.72;62.10
36138;BME280;67787;50.074;21.904;2023-03-26T11:26:41;97966.75;;;13.03;61.92
36138;BME280;67787;50.074;21.904;2023-03-26T11:29:23;97970.36;;;13.00;61.58
36138;BME280;67787;50.074;21.904;2023-03-26T11:32:03;97967.77;;;12.87;60.79
36138;BME280;67787;50.074;21.904;2023-03-26T11:35:13;97967.30;;;12.71;61.20
36138;BME280;67787;50.074;21.904;2023-03-26T11:37:38;97968.73;;;12.59;61.06
36138;BME280;67787;50.074;21.904;2023-03-26T11:40:20;97964.52;;;12.49;61.07
36138;BME280;67787;50.074;21.904;2023-03-26T11:42:53;97958.70;;;12.47;60.31
36138;BME280;67787;50.074;21.904;2023-03-26T11:45:24;97956.50;;;12.57;60.90
36138;BME280;67787;50.074;21.904;2023-03-26T11:48:02;97954.39;;;12.71;61.11
36138;BME280;67787;50.074;21.904;2023-03-26T11:50:31;97951.64;;;12.83;61.04
36138;BME280;67787;50.074;21.904;2023-03-26T11:53:15;97950.15;;;12.85;60.98
36138;BME280;67787;50.074;21.904;2023-03-26T11:55:47;97951.90;;;12.82;60.54
36138;BME280;67787;50.074;21.904;2023-03-26T11:58:42;97951.77;;;12.76;60.12
36138;BME280;67787;50.074;21.904;2023-03-26T12:01:20;97955.61;;;12.78;60.45
36138;BME280;67787;50.074;21.904;2023-03-26T12:04:03;97953.47;;;12.82;60.13
36138;BME280;67787;50.074;21.904;2023-03-26T12:06:30;97948.77;;;12.79;59.89
36138;BME280;67787;50.074;21.904;2023-03-26T12:08:58;97949.31;;;12.75;59.83
36138;BME280;67787;50.074;21.904;2023-03-26T12:11:27;97950.37;;;12.76;60.12
36138;BME280;67787;50.074;21.904;2023-03-26T12:14:03;97944.95;;;12.84;60.08
36138;BME280;67787;50.074;21.904;2023-03-26T12:16:30;97945.61;;;12.86;59.84
36138;BME280;67787;50.074;21.904;2023-03-26T12:19:17;97945.38;;;12.85;59.62
36138;BME280;67787;50.074;21.904;2023-03-26T12:21:47;97950.41;;;12.88;59.65
36138;BME280;67787;50.074;21.904;2023-03-26T12:24:26;97950.10;;;12.91;58.42
36138;BME280;67787;50.074;21.904;2023-03-26T12:26:59;97947.17;;;12.92;58.76
36138;BME280;67787;50.074;21.904;2023-03-26T12:29:29;97940.48;;;12.97;59.08
36138;BME280;67787;50.074;21.904;2023-03-26T12:34:36;97934.15;;;12.90;59.00
36138;BME280;67787;50.074;21.904;2023-03-26T12:37:05;97935.04;;;12.87;58.93
36138;BME280;67787;50.074;21.904;2023-03-26T12:39:37;97929.91;;;12.92;58.94
36138;BME280;67787;50.074;21.904;2023-03-26T12:42:30;97921.40;;;13.08;58.12
36138;BME280;67787;50.074;21.904;2023-03-26T12:45:22;97913.38;;;13.27;56.53
36138;BME280;67787;50.074;21.904;2023-03-26T12:47:53;97909.84;;;13.32;56.38
36138;BME280;67787;50.074;21.904;2023-03-26T12:56:22;97899.58;;;13.61;57.84
36138;BME280;67787;50.074;21.904;2023-03-26T12:59:13;97897.32;;;13.80;56.79
36138;BME280;67787;50.074;21.904;2023-03-26T13:01:54;97893.46;;;13.82;55.40
36138;BME280;67787;50.074;21.904;2023-03-26T13:04:59;97888.92;;;13.78;55.16
36138;BME280;67787;50.074;21.904;2023-03-26T13:13:10;97884.49;;;12.97;54.22
36138;BME280;67787;50.074;21.904;2023-03-26T13:15:49;97875.67;;;12.82;54.49
36138;BME280;67787;50.074;21.904;2023-03-26T13:18:43;97872.34;;;12.73;54.53
36138;BME280;67787;50.074;21.904;2023-03-26T13:21:23;97867.05;;;12.62;54.89
36138;BME280;67787;50.074;21.904;2023-03-26T13:29:59;97860.23;;;12.52;56.01
36138;BME280;67787;50.074;21.904;2023-03-26T13:35:55;97858.47;;;12.59;55.20
36138;BME280;67787;50.074;21.904;2023-03-26T13:39:08;97855.92;;;12.59;54.74
36138;BME280;67787;50.074;21.904;2023-03-26T13:41:59;97850.70;;;12.55;55.36
36138;BME280;67787;50.074;21.904;2023-03-26T13:44:31;97849.80;;;12.51;55.64
36138;BME280;67787;50.074;21.904;2023-03-26T13:47:08;97845.40;;;12.45;55.75
36138;BME280;67787;50.074;21.904;2023-03-26T13:49:36;97848.71;;;12.41;55.55
36138;BME280;67787;50.074;21.904;2023-03-26T13:52:10;97848.77;;;12.35;54.94
36138;BME280;67787;50.074;21.904;2023-03-26T13:54:54;97846.85;;;12.31;54.75
36138;BME280;67787;50.074;21.904;2023-03-26T13:57:36;97851.26;;;12.31;54.98
36138;BME280;67787;50.074;21.904;2023-03-26T14:00:12;97847.05;;;12.34;54.40
36138;BME280;67787;50.074;21.904;2023-03-26T14:03:07;97846.58;;;12.35;54.51
36138;BME280;67787;50.074;21.904;2023-03-26T14:05:43;97837.97;;;12.42;53.76
36138;BME280;67787;50.074;21.904;2023-03-26T14:08:36;97836.86;;;12.53;53.76
36138;BME280;67787;50.074;21.904;2023-03-26T14:16:16;97830.61;;;12.63;53.26
36138;BME280;67787;50.074;21.904;2023-03-26T14:24:52;97829.24;;;12.69;54.05
36138;BME280;67787;50.074;21.904;2023-03-26T14:27:37;97828.48;;;12.67;54.32
36138;BME280;67787;50.074;21.904;2023-03-26T14:41:48;97817.75;;;12.41;53.83
36138;BME280;67787;50.074;21.904;2023-03-26T14:47:17;97817.59;;;12.35;53.00
36138;BME280;67787;50.074;21.904;2023-03-26T14:52:47;97834.08;;;12.23;53.37
36138;BME280;67787;50.074;21.904;2023-03-26T15:13:04;97836.44;;;11.44;53.82
36138;BME280;67787;50.074;21.904;2023-03-26T15:25:28;97833.86;;;11.03;54.45
36138;BME280;67787;50.074;21.904;2023-03-26T15:28:33;97830.64;;;10.99;54.66
36138;BME280;67787;50.074;21.904;2023-03-26T15:34:36;97829.40;;;10.96;54.85
36138;BME280;67787;50.074;21.904;2023-03-26T15:40:06;97837.84;;;11.00;54.80
36138;BME280;67787;50.074;21.904;2023-03-26T16:02:25;97845.77;;;10.64;55.04
36138;BME280;67787;50.074;21.904;2023-03-26T16:05:01;97844.75;;;10.62;55.10
36138;BME280;67787;50.074;21.904;2023-03-26T16:15:52;97841.55;;;10.48;55.10
36138;BME280;67787;50.074;21.904;2023-03-26T16:18:28;97838.69;;;10.42;55.22
36138;BME280;67787;50.074;21.904;2023-03-26T16:45:45;97832.26;;;10.05;55.70
36138;BME280;67787;50.074;21.904;2023-03-26T16:48:34;97827.36;;;9.99;55.73
36138;BME280;67787;50.074;21.904;2023-03-26T16:56:59;97825.80;;;9.79;55.98
36138;BME280;67787;50.074;21.904;2023-03-26T17:05:16;97822.16;;;9.64;56.18
36138;BME280;67787;50.074;21.904;2023-03-26T17:08:00;97813.99;;;9.56;56.17
36138;BME280;67787;50.074;21.904;2023-03-26T17:13:23;97819.34;;;9.39;56.21
36138;BME280;67787;50.074;21.904;2023-03-26T17:16:19;97817.98;;;9.29;56.25
36138;BME280;67787;50.074;21.904;2023-03-26T17:19:27;97821.56;;;9.18;56.34
36138;BME280;67787;50.074;21.904;2023-03-26T17:22:02;97823.30;;;9.08;56.39
36138;BME280;67787;50.074;21.904;2023-03-26T17:33:29;97824.48;;;8.92;56.74
36138;BME280;67787;50.074;21.904;2023-03-26T17:36:54;97820.98;;;8.79;56.78
36138;BME280;67787;50.074;21.904;2023-03-26T17:42:28;97823.35;;;8.70;56.85
36138;BME280;67787;50.074;21.904;2023-03-26T17:45:27;97829.09;;;8.62;56.95
36138;BME280;67787;50.074;21.904;2023-03-26T17:48:07;97833.09;;;8.55;57.00
36138;BME280;67787;50.074;21.904;2023-03-26T17:51:04;97836.04;;;8.49;57.03
36138;BME280;67787;50.074;21.904;2023-03-26T18:24:35;97843.30;;;7.72;57.75
36138;BME280;67787;50.074;21.904;2023-03-26T18:47:51;97817.79;;;7.87;57.87
36138;BME280;67787;50.074;21.904;2023-03-26T18:55:01;97833.91;;;7.42;58.41
36138;BME280;67787;50.074;21.904;2023-03-26T18:57:48;97829.70;;;7.30;58.61
36138;BME280;67787;50.074;21.904;2023-03-26T19:00:21;97826.81;;;7.24;58.66
36138;BME280;67787;50.074;21.904;2023-03-26T19:03:06;97830.63;;;7.21;58.57
36138;BME280;67787;50.074;21.904;2023-03-26T19:05:35;97832.73;;;7.09;58.87
36138;BME280;67787;50.074;21.904;2023-03-26T19:08:12;97838.57;;;7.00;58.98
36138;BME280;67787;50.074;21.904;2023-03-26T19:10:44;97837.09;;;6.94;58.91
36138;BME280;67787;50.074;21.904;2023-03-26T19:13:15;97827.10;;;6.86;58.96
